Girouxville, Canada
Current Conditions -  °F | °C
As of 1:00 PM on Friday 28 Nov 2014 (Local Time) from CYPE Reporting Station
Light Snow Light Snow  
Wind Chill: -26°   Ceiling: 4000
Heat Index: -8°   Visibility: 6mi
Dew Point: -17°   Wind: 10mph
Humidity: 65%   Direction: 360°N
Pressure: 30.06"   Gusts: NA
Location:  55.75°N, 117.33°W
Report Text: CYPE 282000Z 36009KT 6SM -SN BKN040 BKN150 OVC210 M22/M27 A3006 RMK SC5AC2CI1 SLP241
Loading
Personal Weather Stations






























Interactive Weather Map New forecast layout! Learn more

10-Day Weather Forecast

Advertisements
Track Severe Weather on mobile